sensor_id;sensor_type;location;lat;lon;timestamp;P1;durP1;ratioP1;P2;durP2;ratioP2
22614;SDS011;11474;50.790;0.298;2022-12-08T00:00:49;47.47;;;25.67;;
22614;SDS011;11474;50.790;0.298;2022-12-08T00:03:15;46.78;;;26.33;;
22614;SDS011;11474;50.790;0.298;2022-12-08T00:05:45;48.58;;;26.20;;
22614;SDS011;11474;50.790;0.298;2022-12-08T00:08:29;46.70;;;25.92;;
22614;SDS011;11474;50.790;0.298;2022-12-08T00:11:14;42.22;;;26.52;;
22614;SDS011;11474;50.790;0.298;2022-12-08T00:13:41;49.90;;;26.17;;
22614;SDS011;11474;50.790;0.298;2022-12-08T00:16:07;45.58;;;25.90;;
22614;SDS011;11474;50.790;0.298;2022-12-08T00:18:33;44.90;;;25.05;;
22614;SDS011;11474;50.790;0.298;2022-12-08T00:21:00;47.63;;;26.00;;
22614;SDS011;11474;50.790;0.298;2022-12-08T00:23:26;46.80;;;25.85;;
22614;SDS011;11474;50.790;0.298;2022-12-08T00:25:52;47.83;;;25.90;;
22614;SDS011;11474;50.790;0.298;2022-12-08T00:28:18;48.23;;;26.27;;
22614;SDS011;11474;50.790;0.298;2022-12-08T00:30:44;46.92;;;26.05;;
22614;SDS011;11474;50.790;0.298;2022-12-08T00:33:11;42.45;;;25.67;;
22614;SDS011;11474;50.790;0.298;2022-12-08T00:35:37;50.42;;;26.27;;
22614;SDS011;11474;50.790;0.298;2022-12-08T00:38:03;45.85;;;25.70;;
22614;SDS011;11474;50.790;0.298;2022-12-08T00:40:29;47.47;;;26.15;;
22614;SDS011;11474;50.790;0.298;2022-12-08T00:42:55;44.57;;;26.43;;
22614;SDS011;11474;50.790;0.298;2022-12-08T00:45:21;48.58;;;27.55;;
22614;SDS011;11474;50.790;0.298;2022-12-08T00:47:47;47.80;;;27.08;;
22614;SDS011;11474;50.790;0.298;2022-12-08T00:50:14;47.05;;;26.45;;
22614;SDS011;11474;50.790;0.298;2022-12-08T00:52:40;48.20;;;26.80;;
22614;SDS011;11474;50.790;0.298;2022-12-08T00:55:06;48.63;;;26.27;;
22614;SDS011;11474;50.790;0.298;2022-12-08T00:57:32;49.60;;;27.13;;
22614;SDS011;11474;50.790;0.298;2022-12-08T00:59:58;48.00;;;27.00;;
22614;SDS011;11474;50.790;0.298;2022-12-08T01:02:24;45.67;;;25.70;;
22614;SDS011;11474;50.790;0.298;2022-12-08T01:04:50;51.00;;;25.80;;
22614;SDS011;11474;50.790;0.298;2022-12-08T01:07:16;41.80;;;24.50;;
22614;SDS011;11474;50.790;0.298;2022-12-08T01:09:42;46.78;;;26.02;;
22614;SDS011;11474;50.790;0.298;2022-12-08T01:12:08;46.47;;;25.08;;
22614;SDS011;11474;50.790;0.298;2022-12-08T01:14:35;43.67;;;25.08;;
22614;SDS011;11474;50.790;0.298;2022-12-08T01:17:01;43.42;;;24.55;;
22614;SDS011;11474;50.790;0.298;2022-12-08T01:19:27;49.92;;;26.55;;
22614;SDS011;11474;50.790;0.298;2022-12-08T01:21:54;43.67;;;24.10;;
22614;SDS011;11474;50.790;0.298;2022-12-08T01:24:21;43.25;;;24.45;;
22614;SDS011;11474;50.790;0.298;2022-12-08T01:26:47;47.63;;;26.05;;
22614;SDS011;11474;50.790;0.298;2022-12-08T01:29:13;40.25;;;23.30;;
22614;SDS011;11474;50.790;0.298;2022-12-08T01:31:39;39.22;;;24.20;;
22614;SDS011;11474;50.790;0.298;2022-12-08T01:34:06;41.42;;;24.80;;
22614;SDS011;11474;50.790;0.298;2022-12-08T01:36:33;45.97;;;24.57;;
22614;SDS011;11474;50.790;0.298;2022-12-08T01:39:04;44.27;;;24.77;;
22614;SDS011;11474;50.790;0.298;2022-12-08T01:41:32;45.53;;;24.02;;
22614;SDS011;11474;50.790;0.298;2022-12-08T01:46:25;43.53;;;24.43;;
22614;SDS011;11474;50.790;0.298;2022-12-08T01:48:53;40.50;;;24.65;;
22614;SDS011;11474;50.790;0.298;2022-12-08T01:51:21;43.03;;;24.40;;
22614;SDS011;11474;50.790;0.298;2022-12-08T01:53:49;41.28;;;23.50;;
22614;SDS011;11474;50.790;0.298;2022-12-08T01:56:18;39.53;;;23.27;;
22614;SDS011;11474;50.790;0.298;2022-12-08T01:58:47;42.10;;;24.60;;
22614;SDS011;11474;50.790;0.298;2022-12-08T02:01:14;40.08;;;24.08;;
22614;SDS011;11474;50.790;0.298;2022-12-08T02:04:13;41.67;;;23.42;;
22614;SDS011;11474;50.790;0.298;2022-12-08T02:06:34;46.67;;;22.98;;
22614;SDS011;11474;50.790;0.298;2022-12-08T02:09:01;43.70;;;23.38;;
22614;SDS011;11474;50.790;0.298;2022-12-08T02:11:28;45.40;;;25.05;;
22614;SDS011;11474;50.790;0.298;2022-12-08T02:13:54;41.85;;;23.80;;
22614;SDS011;11474;50.790;0.298;2022-12-08T02:18:57;46.25;;;24.98;;
22614;SDS011;11474;50.790;0.298;2022-12-08T02:21:29;42.88;;;24.40;;
22614;SDS011;11474;50.790;0.298;2022-12-08T02:24:09;42.88;;;24.00;;
22614;SDS011;11474;50.790;0.298;2022-12-08T02:32:08;40.55;;;23.73;;
22614;SDS011;11474;50.790;0.298;2022-12-08T02:34:51;46.35;;;23.73;;
22614;SDS011;11474;50.790;0.298;2022-12-08T02:37:28;44.20;;;24.10;;
22614;SDS011;11474;50.790;0.298;2022-12-08T02:40:06;41.80;;;24.08;;
22614;SDS011;11474;50.790;0.298;2022-12-08T02:42:39;39.50;;;24.35;;
22614;SDS011;11474;50.790;0.298;2022-12-08T02:45:18;42.35;;;23.67;;
22614;SDS011;11474;50.790;0.298;2022-12-08T02:47:47;43.60;;;23.50;;
22614;SDS011;11474;50.790;0.298;2022-12-08T02:50:14;42.80;;;23.67;;
22614;SDS011;11474;50.790;0.298;2022-12-08T02:52:41;37.92;;;23.42;;
22614;SDS011;11474;50.790;0.298;2022-12-08T02:55:13;41.00;;;22.85;;
22614;SDS011;11474;50.790;0.298;2022-12-08T02:57:52;42.50;;;23.35;;
22614;SDS011;11474;50.790;0.298;2022-12-08T03:00:20;43.83;;;23.52;;
22614;SDS011;11474;50.790;0.298;2022-12-08T03:10:34;44.50;;;24.17;;
22614;SDS011;11474;50.790;0.298;2022-12-08T03:13:03;41.22;;;23.70;;
22614;SDS011;11474;50.790;0.298;2022-12-08T03:15:30;42.67;;;24.45;;
22614;SDS011;11474;50.790;0.298;2022-12-08T03:17:57;44.58;;;23.73;;
22614;SDS011;11474;50.790;0.298;2022-12-08T03:20:25;44.55;;;24.83;;
22614;SDS011;11474;50.790;0.298;2022-12-08T03:22:52;44.53;;;24.90;;
22614;SDS011;11474;50.790;0.298;2022-12-08T03:25:21;43.83;;;23.98;;
22614;SDS011;11474;50.790;0.298;2022-12-08T03:27:47;44.13;;;24.95;;
22614;SDS011;11474;50.790;0.298;2022-12-08T03:30:13;47.60;;;24.95;;
22614;SDS011;11474;50.790;0.298;2022-12-08T03:32:57;47.05;;;25.05;;
22614;SDS011;11474;50.790;0.298;2022-12-08T03:35:27;43.63;;;25.15;;
22614;SDS011;11474;50.790;0.298;2022-12-08T03:38:11;42.27;;;25.43;;
22614;SDS011;11474;50.790;0.298;2022-12-08T03:40:37;45.90;;;26.50;;
22614;SDS011;11474;50.790;0.298;2022-12-08T03:43:03;43.30;;;25.77;;
22614;SDS011;11474;50.790;0.298;2022-12-08T03:45:30;43.40;;;24.67;;
22614;SDS011;11474;50.790;0.298;2022-12-08T03:47:56;41.80;;;23.90;;
22614;SDS011;11474;50.790;0.298;2022-12-08T03:50:22;42.53;;;24.85;;
22614;SDS011;11474;50.790;0.298;2022-12-08T03:52:48;43.33;;;24.27;;
22614;SDS011;11474;50.790;0.298;2022-12-08T03:55:15;44.22;;;25.88;;
22614;SDS011;11474;50.790;0.298;2022-12-08T03:57:41;45.03;;;24.88;;
22614;SDS011;11474;50.790;0.298;2022-12-08T04:00:08;45.45;;;25.80;;
22614;SDS011;11474;50.790;0.298;2022-12-08T04:02:36;43.13;;;25.48;;
22614;SDS011;11474;50.790;0.298;2022-12-08T04:05:03;44.37;;;24.90;;
22614;SDS011;11474;50.790;0.298;2022-12-08T04:07:29;46.75;;;26.23;;
22614;SDS011;11474;50.790;0.298;2022-12-08T04:09:55;44.85;;;24.38;;
22614;SDS011;11474;50.790;0.298;2022-12-08T04:12:21;45.75;;;24.88;;
22614;SDS011;11474;50.790;0.298;2022-12-08T04:14:47;43.60;;;25.30;;
22614;SDS011;11474;50.790;0.298;2022-12-08T04:17:13;46.13;;;25.30;;
22614;SDS011;11474;50.790;0.298;2022-12-08T04:19:39;48.00;;;25.45;;
22614;SDS011;11474;50.790;0.298;2022-12-08T04:22:05;42.63;;;23.88;;
22614;SDS011;11474;50.790;0.298;2022-12-08T04:24:31;48.63;;;25.23;;
22614;SDS011;11474;50.790;0.298;2022-12-08T04:26:57;45.72;;;24.95;;
22614;SDS011;11474;50.790;0.298;2022-12-08T04:29:23;45.22;;;25.63;;
22614;SDS011;11474;50.790;0.298;2022-12-08T04:31:49;48.88;;;25.75;;
22614;SDS011;11474;50.790;0.298;2022-12-08T04:34:15;43.60;;;26.60;;
22614;SDS011;11474;50.790;0.298;2022-12-08T04:36:41;49.35;;;26.15;;
22614;SDS011;11474;50.790;0.298;2022-12-08T04:39:07;46.03;;;25.50;;
22614;SDS011;11474;50.790;0.298;2022-12-08T04:41:33;50.55;;;26.45;;
22614;SDS011;11474;50.790;0.298;2022-12-08T04:44:00;43.00;;;26.15;;
22614;SDS011;11474;50.790;0.298;2022-12-08T04:46:26;48.13;;;26.70;;
22614;SDS011;11474;50.790;0.298;2022-12-08T04:48:52;45.30;;;25.80;;
22614;SDS011;11474;50.790;0.298;2022-12-08T04:51:18;46.05;;;25.85;;
22614;SDS011;11474;50.790;0.298;2022-12-08T04:53:45;44.80;;;26.40;;
22614;SDS011;11474;50.790;0.298;2022-12-08T04:56:14;45.88;;;25.30;;
22614;SDS011;11474;50.790;0.298;2022-12-08T04:58:40;45.22;;;25.38;;
22614;SDS011;11474;50.790;0.298;2022-12-08T05:01:06;47.92;;;25.90;;
22614;SDS011;11474;50.790;0.298;2022-12-08T05:03:33;45.90;;;24.67;;
22614;SDS011;11474;50.790;0.298;2022-12-08T05:05:59;43.72;;;25.48;;
22614;SDS011;11474;50.790;0.298;2022-12-08T05:08:26;48.50;;;25.00;;
22614;SDS011;11474;50.790;0.298;2022-12-08T05:10:52;44.30;;;24.15;;
22614;SDS011;11474;50.790;0.298;2022-12-08T05:13:18;45.08;;;24.45;;
22614;SDS011;11474;50.790;0.298;2022-12-08T05:15:44;44.30;;;23.38;;
22614;SDS011;11474;50.790;0.298;2022-12-08T05:18:10;46.92;;;25.35;;
22614;SDS011;11474;50.790;0.298;2022-12-08T05:20:36;43.10;;;25.27;;
22614;SDS011;11474;50.790;0.298;2022-12-08T05:23:02;42.33;;;23.83;;
22614;SDS011;11474;50.790;0.298;2022-12-08T05:25:28;49.03;;;26.33;;
22614;SDS011;11474;50.790;0.298;2022-12-08T05:27:54;44.00;;;24.85;;
22614;SDS011;11474;50.790;0.298;2022-12-08T05:30:20;41.00;;;23.90;;
22614;SDS011;11474;50.790;0.298;2022-12-08T05:32:46;44.42;;;24.85;;
22614;SDS011;11474;50.790;0.298;2022-12-08T05:35:12;46.78;;;23.95;;
22614;SDS011;11474;50.790;0.298;2022-12-08T05:37:38;46.88;;;24.73;;
22614;SDS011;11474;50.790;0.298;2022-12-08T05:40:05;41.20;;;24.90;;
22614;SDS011;11474;50.790;0.298;2022-12-08T05:42:32;47.30;;;25.58;;
22614;SDS011;11474;50.790;0.298;2022-12-08T05:44:58;48.42;;;25.75;;
22614;SDS011;11474;50.790;0.298;2022-12-08T05:47:24;51.35;;;25.65;;
22614;SDS011;11474;50.790;0.298;2022-12-08T05:49:50;46.85;;;25.77;;
22614;SDS011;11474;50.790;0.298;2022-12-08T05:52:16;53.30;;;26.95;;
22614;SDS011;11474;50.790;0.298;2022-12-08T05:54:42;41.55;;;26.20;;
22614;SDS011;11474;50.790;0.298;2022-12-08T05:57:09;48.37;;;26.37;;
22614;SDS011;11474;50.790;0.298;2022-12-08T05:59:35;47.80;;;25.75;;
22614;SDS011;11474;50.790;0.298;2022-12-08T06:02:01;48.15;;;26.83;;
22614;SDS011;11474;50.790;0.298;2022-12-08T06:04:27;52.47;;;27.23;;
22614;SDS011;11474;50.790;0.298;2022-12-08T06:06:53;46.60;;;26.85;;
22614;SDS011;11474;50.790;0.298;2022-12-08T06:09:19;47.67;;;27.13;;
22614;SDS011;11474;50.790;0.298;2022-12-08T06:11:45;44.90;;;25.85;;
22614;SDS011;11474;50.790;0.298;2022-12-08T06:14:11;49.67;;;27.55;;
22614;SDS011;11474;50.790;0.298;2022-12-08T06:16:38;47.45;;;27.17;;
22614;SDS011;11474;50.790;0.298;2022-12-08T06:19:04;47.07;;;27.20;;
22614;SDS011;11474;50.790;0.298;2022-12-08T06:21:30;44.47;;;26.40;;
22614;SDS011;11474;50.790;0.298;2022-12-08T06:23:56;51.75;;;27.08;;
22614;SDS011;11474;50.790;0.298;2022-12-08T06:26:22;48.00;;;27.17;;
22614;SDS011;11474;50.790;0.298;2022-12-08T06:28:48;52.05;;;27.85;;
22614;SDS011;11474;50.790;0.298;2022-12-08T06:31:15;49.00;;;28.15;;
22614;SDS011;11474;50.790;0.298;2022-12-08T06:33:42;50.10;;;28.88;;
22614;SDS011;11474;50.790;0.298;2022-12-08T06:36:09;51.75;;;27.67;;
22614;SDS011;11474;50.790;0.298;2022-12-08T06:38:36;43.65;;;26.02;;
22614;SDS011;11474;50.790;0.298;2022-12-08T06:41:02;51.20;;;27.35;;
22614;SDS011;11474;50.790;0.298;2022-12-08T06:43:29;48.30;;;26.73;;
22614;SDS011;11474;50.790;0.298;2022-12-08T06:45:56;48.30;;;26.58;;
22614;SDS011;11474;50.790;0.298;2022-12-08T06:48:22;46.65;;;27.17;;
22614;SDS011;11474;50.790;0.298;2022-12-08T06:50:48;50.38;;;27.30;;
22614;SDS011;11474;50.790;0.298;2022-12-08T06:53:14;43.33;;;26.38;;
22614;SDS011;11474;50.790;0.298;2022-12-08T06:55:43;52.85;;;26.77;;
22614;SDS011;11474;50.790;0.298;2022-12-08T06:58:10;41.00;;;27.00;;
22614;SDS011;11474;50.790;0.298;2022-12-08T07:00:36;45.70;;;26.90;;
22614;SDS011;11474;50.790;0.298;2022-12-08T07:03:02;48.40;;;27.75;;
22614;SDS011;11474;50.790;0.298;2022-12-08T07:05:28;45.08;;;26.38;;
22614;SDS011;11474;50.790;0.298;2022-12-08T07:07:54;46.58;;;27.63;;
22614;SDS011;11474;50.790;0.298;2022-12-08T07:10:20;44.10;;;28.15;;
22614;SDS011;11474;50.790;0.298;2022-12-08T07:12:46;49.08;;;27.52;;
22614;SDS011;11474;50.790;0.298;2022-12-08T07:15:12;47.97;;;27.17;;
22614;SDS011;11474;50.790;0.298;2022-12-08T07:17:39;51.08;;;27.42;;
22614;SDS011;11474;50.790;0.298;2022-12-08T07:20:05;48.17;;;27.90;;
22614;SDS011;11474;50.790;0.298;2022-12-08T07:22:31;45.55;;;26.85;;
22614;SDS011;11474;50.790;0.298;2022-12-08T07:24:57;46.30;;;26.15;;
22614;SDS011;11474;50.790;0.298;2022-12-08T07:27:23;49.37;;;27.93;;
22614;SDS011;11474;50.790;0.298;2022-12-08T07:29:49;47.42;;;25.80;;
22614;SDS011;11474;50.790;0.298;2022-12-08T07:32:15;45.28;;;26.65;;
22614;SDS011;11474;50.790;0.298;2022-12-08T07:34:41;44.60;;;27.40;;
22614;SDS011;11474;50.790;0.298;2022-12-08T07:37:07;49.55;;;27.10;;
22614;SDS011;11474;50.790;0.298;2022-12-08T07:39:33;43.00;;;26.80;;
22614;SDS011;11474;50.790;0.298;2022-12-08T07:41:59;41.90;;;26.70;;
22614;SDS011;11474;50.790;0.298;2022-12-08T07:44:25;46.60;;;27.13;;
22614;SDS011;11474;50.790;0.298;2022-12-08T07:46:51;49.10;;;26.83;;
22614;SDS011;11474;50.790;0.298;2022-12-08T07:49:17;46.40;;;25.50;;
22614;SDS011;11474;50.790;0.298;2022-12-08T07:51:43;46.78;;;26.10;;
22614;SDS011;11474;50.790;0.298;2022-12-08T07:54:10;44.53;;;26.53;;
22614;SDS011;11474;50.790;0.298;2022-12-08T07:56:36;44.63;;;26.85;;
22614;SDS011;11474;50.790;0.298;2022-12-08T07:59:03;48.40;;;27.52;;
22614;SDS011;11474;50.790;0.298;2022-12-08T08:01:31;51.33;;;26.15;;
22614;SDS011;11474;50.790;0.298;2022-12-08T08:03:58;48.00;;;28.17;;
22614;SDS011;11474;50.790;0.298;2022-12-08T08:06:28;47.28;;;27.60;;
22614;SDS011;11474;50.790;0.298;2022-12-08T08:08:54;47.60;;;27.80;;
22614;SDS011;11474;50.790;0.298;2022-12-08T08:11:20;47.20;;;26.27;;
22614;SDS011;11474;50.790;0.298;2022-12-08T08:13:47;46.17;;;27.70;;
22614;SDS011;11474;50.790;0.298;2022-12-08T08:16:13;46.83;;;27.05;;
22614;SDS011;11474;50.790;0.298;2022-12-08T08:18:39;45.25;;;26.85;;
22614;SDS011;11474;50.790;0.298;2022-12-08T08:21:05;46.63;;;27.23;;
22614;SDS011;11474;50.790;0.298;2022-12-08T08:23:32;45.88;;;27.38;;
22614;SDS011;11474;50.790;0.298;2022-12-08T08:26:01;47.42;;;26.80;;
22614;SDS011;11474;50.790;0.298;2022-12-08T08:28:28;46.90;;;27.52;;
22614;SDS011;11474;50.790;0.298;2022-12-08T08:30:54;47.03;;;27.23;;
22614;SDS011;11474;50.790;0.298;2022-12-08T08:33:20;44.25;;;26.02;;
22614;SDS011;11474;50.790;0.298;2022-12-08T08:35:47;46.47;;;26.45;;
22614;SDS011;11474;50.790;0.298;2022-12-08T08:38:13;42.97;;;26.20;;
22614;SDS011;11474;50.790;0.298;2022-12-08T08:40:39;44.42;;;26.02;;
22614;SDS011;11474;50.790;0.298;2022-12-08T08:43:05;44.55;;;25.83;;
22614;SDS011;11474;50.790;0.298;2022-12-08T08:45:33;43.70;;;25.42;;
22614;SDS011;11474;50.790;0.298;2022-12-08T08:47:59;48.05;;;26.38;;
22614;SDS011;11474;50.790;0.298;2022-12-08T08:50:25;44.30;;;25.80;;
22614;SDS011;11474;50.790;0.298;2022-12-08T08:52:51;49.42;;;27.08;;
22614;SDS011;11474;50.790;0.298;2022-12-08T08:55:18;45.83;;;26.02;;
22614;SDS011;11474;50.790;0.298;2022-12-08T08:57:44;45.05;;;25.58;;
22614;SDS011;11474;50.790;0.298;2022-12-08T09:00:10;45.83;;;25.90;;
22614;SDS011;11474;50.790;0.298;2022-12-08T09:02:36;46.28;;;25.77;;
22614;SDS011;11474;50.790;0.298;2022-12-08T09:05:03;46.10;;;25.52;;
22614;SDS011;11474;50.790;0.298;2022-12-08T09:07:29;42.40;;;25.85;;
22614;SDS011;11474;50.790;0.298;2022-12-08T09:09:55;44.50;;;25.58;;
22614;SDS011;11474;50.790;0.298;2022-12-08T09:12:22;43.70;;;25.98;;
22614;SDS011;11474;50.790;0.298;2022-12-08T09:14:48;39.17;;;25.80;;
22614;SDS011;11474;50.790;0.298;2022-12-08T09:17:14;45.50;;;24.58;;
22614;SDS011;11474;50.790;0.298;2022-12-08T09:19:40;50.55;;;26.15;;
22614;SDS011;11474;50.790;0.298;2022-12-08T09:22:06;42.10;;;25.80;;
22614;SDS011;11474;50.790;0.298;2022-12-08T09:24:32;42.45;;;25.00;;
22614;SDS011;11474;50.790;0.298;2022-12-08T09:26:58;43.40;;;24.33;;
22614;SDS011;11474;50.790;0.298;2022-12-08T09:29:24;40.22;;;24.15;;
22614;SDS011;11474;50.790;0.298;2022-12-08T09:31:50;41.72;;;24.25;;
22614;SDS011;11474;50.790;0.298;2022-12-08T09:34:18;45.67;;;23.70;;
22614;SDS011;11474;50.790;0.298;2022-12-08T09:36:44;43.08;;;23.98;;
22614;SDS011;11474;50.790;0.298;2022-12-08T09:39:10;42.08;;;23.50;;
22614;SDS011;11474;50.790;0.298;2022-12-08T09:41:58;43.83;;;23.58;;
22614;SDS011;11474;50.790;0.298;2022-12-08T09:47:27;38.92;;;23.48;;
22614;SDS011;11474;50.790;0.298;2022-12-08T09:50:01;41.20;;;23.77;;
22614;SDS011;11474;50.790;0.298;2022-12-08T09:55:22;40.25;;;22.63;;
22614;SDS011;11474;50.790;0.298;2022-12-08T09:57:53;41.80;;;22.77;;
22614;SDS011;11474;50.790;0.298;2022-12-08T10:00:21;41.03;;;23.38;;
22614;SDS011;11474;50.790;0.298;2022-12-08T10:02:47;39.63;;;23.10;;
22614;SDS011;11474;50.790;0.298;2022-12-08T10:05:13;37.17;;;22.70;;
22614;SDS011;11474;50.790;0.298;2022-12-08T10:07:47;39.20;;;22.57;;
22614;SDS011;11474;50.790;0.298;2022-12-08T10:17:58;35.22;;;21.38;;
22614;SDS011;11474;50.790;0.298;2022-12-08T10:20:26;38.35;;;20.60;;
22614;SDS011;11474;50.790;0.298;2022-12-08T10:23:04;38.38;;;21.55;;
22614;SDS011;11474;50.790;0.298;2022-12-08T10:25:34;33.20;;;19.83;;
22614;SDS011;11474;50.790;0.298;2022-12-08T10:28:01;33.97;;;20.38;;
22614;SDS011;11474;50.790;0.298;2022-12-08T10:30:29;35.20;;;19.37;;
22614;SDS011;11474;50.790;0.298;2022-12-08T10:32:56;32.25;;;18.38;;
22614;SDS011;11474;50.790;0.298;2022-12-08T10:35:22;37.90;;;19.30;;
22614;SDS011;11474;50.790;0.298;2022-12-08T10:37:59;32.53;;;18.42;;
22614;SDS011;11474;50.790;0.298;2022-12-08T10:40:26;30.42;;;17.85;;
22614;SDS011;11474;50.790;0.298;2022-12-08T10:42:54;28.55;;;17.27;;
22614;SDS011;11474;50.790;0.298;2022-12-08T10:45:22;31.05;;;16.77;;
22614;SDS011;11474;50.790;0.298;2022-12-08T10:48:34;27.48;;;16.38;;
22614;SDS011;11474;50.790;0.298;2022-12-08T10:50:57;29.50;;;16.63;;
22614;SDS011;11474;50.790;0.298;2022-12-08T10:53:26;27.27;;;15.60;;
22614;SDS011;11474;50.790;0.298;2022-12-08T10:58:26;28.17;;;17.15;;
22614;SDS011;11474;50.790;0.298;2022-12-08T11:00:53;30.25;;;16.10;;
22614;SDS011;11474;50.790;0.298;2022-12-08T11:03:30;30.05;;;16.05;;
22614;SDS011;11474;50.790;0.298;2022-12-08T11:05:58;34.20;;;16.35;;
22614;SDS011;11474;50.790;0.298;2022-12-08T11:08:25;29.33;;;15.25;;
22614;SDS011;11474;50.790;0.298;2022-12-08T11:10:51;25.83;;;15.57;;
22614;SDS011;11474;50.790;0.298;2022-12-08T11:13:25;29.00;;;15.95;;
22614;SDS011;11474;50.790;0.298;2022-12-08T11:15:53;23.92;;;14.57;;
22614;SDS011;11474;50.790;0.298;2022-12-08T11:18:22;26.55;;;16.05;;
22614;SDS011;11474;50.790;0.298;2022-12-08T11:20:58;26.88;;;14.93;;
22614;SDS011;11474;50.790;0.298;2022-12-08T11:23:25;26.23;;;14.60;;
22614;SDS011;11474;50.790;0.298;2022-12-08T11:25:52;30.20;;;15.40;;
22614;SDS011;11474;50.790;0.298;2022-12-08T11:28:21;29.35;;;15.80;;
22614;SDS011;11474;50.790;0.298;2022-12-08T11:30:49;23.95;;;15.35;;
22614;SDS011;11474;50.790;0.298;2022-12-08T11:35:46;30.38;;;15.80;;
22614;SDS011;11474;50.790;0.298;2022-12-08T11:38:14;26.97;;;15.80;;
22614;SDS011;11474;50.790;0.298;2022-12-08T11:40:43;27.42;;;15.48;;
22614;SDS011;11474;50.790;0.298;2022-12-08T11:43:27;29.10;;;16.87;;
22614;SDS011;11474;50.790;0.298;2022-12-08T11:46:10;29.07;;;16.67;;
22614;SDS011;11474;50.790;0.298;2022-12-08T11:51:15;29.83;;;16.65;;
22614;SDS011;11474;50.790;0.298;2022-12-08T11:56:33;29.70;;;16.55;;
22614;SDS011;11474;50.790;0.298;2022-12-08T11:59:09;30.17;;;16.17;;
22614;SDS011;11474;50.790;0.298;2022-12-08T12:01:40;29.92;;;16.10;;
22614;SDS011;11474;50.790;0.298;2022-12-08T12:04:10;27.38;;;15.07;;
22614;SDS011;11474;50.790;0.298;2022-12-08T12:06:56;28.98;;;15.98;;
22614;SDS011;11474;50.790;0.298;2022-12-08T12:09:42;25.50;;;14.88;;
22614;SDS011;11474;50.790;0.298;2022-12-08T12:12:28;28.75;;;15.88;;
22614;SDS011;11474;50.790;0.298;2022-12-08T12:20:02;27.60;;;13.57;;
22614;SDS011;11474;50.790;0.298;2022-12-08T12:22:31;29.42;;;15.90;;
22614;SDS011;11474;50.790;0.298;2022-12-08T12:24:58;29.27;;;15.23;;
22614;SDS011;11474;50.790;0.298;2022-12-08T12:27:29;30.40;;;16.30;;
22614;SDS011;11474;50.790;0.298;2022-12-08T12:29:57;27.60;;;14.20;;
22614;SDS011;11474;50.790;0.298;2022-12-08T12:32:25;28.17;;;15.17;;
22614;SDS011;11474;50.790;0.298;2022-12-08T12:34:52;26.58;;;15.05;;
22614;SDS011;11474;50.790;0.298;2022-12-08T12:37:38;30.50;;;14.75;;
22614;SDS011;11474;50.790;0.298;2022-12-08T12:40:06;28.30;;;15.00;;
22614;SDS011;11474;50.790;0.298;2022-12-08T12:47:48;25.55;;;14.75;;
22614;SDS011;11474;50.790;0.298;2022-12-08T13:03:46;26.53;;;14.17;;
22614;SDS011;11474;50.790;0.298;2022-12-08T13:06:13;22.58;;;13.40;;
22614;SDS011;11474;50.790;0.298;2022-12-08T13:08:40;29.02;;;14.95;;
22614;SDS011;11474;50.790;0.298;2022-12-08T13:11:14;27.20;;;14.48;;
22614;SDS011;11474;50.790;0.298;2022-12-08T13:14:02;26.35;;;14.55;;
22614;SDS011;11474;50.790;0.298;2022-12-08T13:16:33;25.93;;;14.43;;
22614;SDS011;11474;50.790;0.298;2022-12-08T13:19:02;28.00;;;14.90;;
22614;SDS011;11474;50.790;0.298;2022-12-08T13:21:33;28.70;;;15.68;;
22614;SDS011;11474;50.790;0.298;2022-12-08T13:27:27;28.30;;;15.57;;
22614;SDS011;11474;50.790;0.298;2022-12-08T13:29:38;27.58;;;15.95;;
22614;SDS011;11474;50.790;0.298;2022-12-08T13:34:43;25.85;;;14.45;;
22614;SDS011;11474;50.790;0.298;2022-12-08T13:44:37;26.57;;;14.63;;
22614;SDS011;11474;50.790;0.298;2022-12-08T13:47:05;26.30;;;14.52;;
22614;SDS011;11474;50.790;0.298;2022-12-08T13:49:36;27.85;;;14.73;;
22614;SDS011;11474;50.790;0.298;2022-12-08T13:52:03;27.45;;;14.90;;
22614;SDS011;11474;50.790;0.298;2022-12-08T13:54:34;27.27;;;14.13;;
22614;SDS011;11474;50.790;0.298;2022-12-08T13:57:03;26.05;;;14.77;;
22614;SDS011;11474;50.790;0.298;2022-12-08T13:59:31;24.75;;;14.05;;
22614;SDS011;11474;50.790;0.298;2022-12-08T14:02:10;23.67;;;13.15;;
22614;SDS011;11474;50.790;0.298;2022-12-08T14:04:43;25.23;;;14.13;;
22614;SDS011;11474;50.790;0.298;2022-12-08T14:07:09;24.73;;;13.52;;
22614;SDS011;11474;50.790;0.298;2022-12-08T14:09:36;22.33;;;12.80;;
22614;SDS011;11474;50.790;0.298;2022-12-08T14:12:06;26.63;;;15.35;;
22614;SDS011;11474;50.790;0.298;2022-12-08T14:17:00;18.00;;;9.55;;
22614;SDS011;11474;50.790;0.298;2022-12-08T14:19:30;19.02;;;10.27;;
22614;SDS011;11474;50.790;0.298;2022-12-08T14:22:01;17.17;;;8.32;;
22614;SDS011;11474;50.790;0.298;2022-12-08T14:24:28;14.02;;;7.85;;
22614;SDS011;11474;50.790;0.298;2022-12-08T14:27:02;13.38;;;7.70;;
22614;SDS011;11474;50.790;0.298;2022-12-08T14:32:21;15.65;;;8.30;;
22614;SDS011;11474;50.790;0.298;2022-12-08T14:34:54;16.63;;;8.13;;
22614;SDS011;11474;50.790;0.298;2022-12-08T14:37:21;17.10;;;8.30;;
22614;SDS011;11474;50.790;0.298;2022-12-08T14:39:48;15.93;;;8.60;;
22614;SDS011;11474;50.790;0.298;2022-12-08T14:42:22;15.45;;;8.65;;
22614;SDS011;11474;50.790;0.298;2022-12-08T14:44:54;18.90;;;8.82;;
22614;SDS011;11474;50.790;0.298;2022-12-08T14:47:21;17.13;;;8.95;;
22614;SDS011;11474;50.790;0.298;2022-12-08T14:49:47;20.50;;;8.85;;
22614;SDS011;11474;50.790;0.298;2022-12-08T14:52:13;18.00;;;9.23;;
22614;SDS011;11474;50.790;0.298;2022-12-08T14:54:39;16.30;;;9.10;;
22614;SDS011;11474;50.790;0.298;2022-12-08T14:57:11;19.83;;;9.32;;
22614;SDS011;11474;50.790;0.298;2022-12-08T14:59:39;17.08;;;9.00;;
22614;SDS011;11474;50.790;0.298;2022-12-08T15:04:38;16.25;;;9.18;;
22614;SDS011;11474;50.790;0.298;2022-12-08T15:07:18;17.40;;;9.13;;
22614;SDS011;11474;50.790;0.298;2022-12-08T15:09:47;17.08;;;9.65;;
22614;SDS011;11474;50.790;0.298;2022-12-08T15:14:41;17.88;;;8.77;;
22614;SDS011;11474;50.790;0.298;2022-12-08T15:19:55;15.57;;;8.65;;
22614;SDS011;11474;50.790;0.298;2022-12-08T15:22:21;16.10;;;8.65;;
22614;SDS011;11474;50.790;0.298;2022-12-08T15:24:48;16.92;;;8.77;;
22614;SDS011;11474;50.790;0.298;2022-12-08T15:27:15;15.97;;;7.83;;
22614;SDS011;11474;50.790;0.298;2022-12-08T15:29:42;14.57;;;8.47;;
22614;SDS011;11474;50.790;0.298;2022-12-08T15:32:09;15.32;;;8.10;;
22614;SDS011;11474;50.790;0.298;2022-12-08T15:34:36;15.77;;;8.38;;
22614;SDS011;11474;50.790;0.298;2022-12-08T15:37:02;16.42;;;8.70;;
22614;SDS011;11474;50.790;0.298;2022-12-08T15:39:33;18.63;;;8.88;;
22614;SDS011;11474;50.790;0.298;2022-12-08T15:42:00;16.85;;;8.43;;
22614;SDS011;11474;50.790;0.298;2022-12-08T15:44:26;17.33;;;8.77;;
22614;SDS011;11474;50.790;0.298;2022-12-08T15:46:53;16.67;;;9.40;;
22614;SDS011;11474;50.790;0.298;2022-12-08T15:49:21;16.35;;;9.25;;
22614;SDS011;11474;50.790;0.298;2022-12-08T15:51:47;17.02;;;9.50;;
22614;SDS011;11474;50.790;0.298;2022-12-08T15:54:13;19.00;;;9.68;;
22614;SDS011;11474;50.790;0.298;2022-12-08T15:56:45;20.00;;;9.70;;
22614;SDS011;11474;50.790;0.298;2022-12-08T15:59:15;18.67;;;10.57;;
22614;SDS011;11474;50.790;0.298;2022-12-08T16:01:43;22.05;;;11.63;;